sensor_id;sensor_type;location;lat;lon;timestamp;pressure;altitude;pressure_sealevel;temperature;humidity
60433;BME280;46286;48.098;11.590;2023-01-26T00:02:18;95846.56;;;-2.54;100.00
60433;BME280;46286;48.098;11.590;2023-01-26T00:04:43;95831.81;;;-2.61;100.00
60433;BME280;46286;48.098;11.590;2023-01-26T00:07:09;95836.34;;;-2.48;100.00
60433;BME280;46286;48.098;11.590;2023-01-26T00:09:34;95837.50;;;-2.50;100.00
60433;BME280;46286;48.098;11.590;2023-01-26T00:12:00;95835.56;;;-2.48;100.00
60433;BME280;46286;48.098;11.590;2023-01-26T00:14:25;95834.41;;;-2.61;100.00
60433;BME280;46286;48.098;11.590;2023-01-26T00:16:51;95830.94;;;-2.68;100.00
60433;BME280;46286;48.098;11.590;2023-01-26T00:19:17;95825.88;;;-2.61;100.00
60433;BME280;46286;48.098;11.590;2023-01-26T00:21:43;95815.13;;;-2.65;100.00
60433;BME280;46286;48.098;11.590;2023-01-26T00:24:09;95816.81;;;-2.57;100.00
60433;BME280;46286;48.098;11.590;2023-01-26T00:26:34;95815.91;;;-2.49;100.00
60433;BME280;46286;48.098;11.590;2023-01-26T00:29:00;95809.78;;;-2.48;100.00
60433;BME280;46286;48.098;11.590;2023-01-26T00:31:26;95809.44;;;-2.45;100.00
60433;BME280;46286;48.098;11.590;2023-01-26T00:33:53;95806.84;;;-2.45;100.00
60433;BME280;46286;48.098;11.590;2023-01-26T00:36:19;95810.16;;;-2.51;100.00
60433;BME280;46286;48.098;11.590;2023-01-26T00:38:45;95813.34;;;-2.49;100.00
60433;BME280;46286;48.098;11.590;2023-01-26T00:41:11;95810.22;;;-2.45;100.00
60433;BME280;46286;48.098;11.590;2023-01-26T00:43:56;95805.00;;;-2.51;100.00
60433;BME280;46286;48.098;11.590;2023-01-26T00:46:22;95807.03;;;-2.47;100.00
60433;BME280;46286;48.098;11.590;2023-01-26T00:48:47;95808.09;;;-2.41;100.00
60433;BME280;46286;48.098;11.590;2023-01-26T00:51:13;95812.41;;;-2.27;100.00
60433;BME280;46286;48.098;11.590;2023-01-26T00:53:38;95810.81;;;-2.28;100.00
60433;BME280;46286;48.098;11.590;2023-01-26T00:56:04;95800.00;;;-2.38;100.00
60433;BME280;46286;48.098;11.590;2023-01-26T00:58:30;95808.63;;;-2.46;100.00
60433;BME280;46286;48.098;11.590;2023-01-26T01:00:55;95799.91;;;-2.45;100.00
60433;BME280;46286;48.098;11.590;2023-01-26T01:03:21;95795.22;;;-2.41;100.00
60433;BME280;46286;48.098;11.590;2023-01-26T01:05:46;95791.13;;;-2.50;100.00
60433;BME280;46286;48.098;11.590;2023-01-26T01:08:12;95798.75;;;-2.42;100.00
60433;BME280;46286;48.098;11.590;2023-01-26T01:10:37;95793.31;;;-2.47;100.00
60433;BME280;46286;48.098;11.590;2023-01-26T01:13:03;95789.53;;;-2.51;100.00
60433;BME280;46286;48.098;11.590;2023-01-26T01:15:28;95796.13;;;-2.64;100.00
60433;BME280;46286;48.098;11.590;2023-01-26T01:17:54;95782.25;;;-2.63;100.00
60433;BME280;46286;48.098;11.590;2023-01-26T01:20:19;95791.13;;;-2.50;100.00
60433;BME280;46286;48.098;11.590;2023-01-26T01:22:45;95797.34;;;-2.59;100.00
60433;BME280;46286;48.098;11.590;2023-01-26T01:25:11;95798.25;;;-2.52;100.00
60433;BME280;46286;48.098;11.590;2023-01-26T01:27:36;95779.22;;;-2.51;100.00
60433;BME280;46286;48.098;11.590;2023-01-26T01:30:03;95798.25;;;-2.52;100.00
60433;BME280;46286;48.098;11.590;2023-01-26T01:32:34;95794.41;;;-2.56;100.00
60433;BME280;46286;48.098;11.590;2023-01-26T01:35:00;95786.31;;;-2.53;100.00
60433;BME280;46286;48.098;11.590;2023-01-26T01:37:27;95791.38;;;-2.45;100.00
60433;BME280;46286;48.098;11.590;2023-01-26T01:39:53;95788.28;;;-2.55;100.00
60433;BME280;46286;48.098;11.590;2023-01-26T01:42:19;95787.66;;;-2.57;100.00
60433;BME280;46286;48.098;11.590;2023-01-26T01:45:20;95793.09;;;-2.52;100.00
60433;BME280;46286;48.098;11.590;2023-01-26T01:47:32;95789.16;;;-2.48;100.00
60433;BME280;46286;48.098;11.590;2023-01-26T01:49:58;95790.91;;;-2.34;100.00
60433;BME280;46286;48.098;11.590;2023-01-26T01:52:27;95799.63;;;-2.35;100.00
60433;BME280;46286;48.098;11.590;2023-01-26T01:55:11;95791.81;;;-2.41;100.00
60433;BME280;46286;48.098;11.590;2023-01-26T01:57:46;95785.59;;;-2.47;100.00
60433;BME280;46286;48.098;11.590;2023-01-26T02:00:21;95785.72;;;-2.70;100.00
60433;BME280;46286;48.098;11.590;2023-01-26T02:08:07;95776.66;;;-2.51;100.00
60433;BME280;46286;48.098;11.590;2023-01-26T02:10:34;95778.00;;;-2.55;100.00
60433;BME280;46286;48.098;11.590;2023-01-26T02:13:01;95776.38;;;-2.56;100.00
60433;BME280;46286;48.098;11.590;2023-01-26T02:15:27;95772.47;;;-2.52;100.00
60433;BME280;46286;48.098;11.590;2023-01-26T02:17:53;95769.25;;;-2.54;100.00
60433;BME280;46286;48.098;11.590;2023-01-26T02:20:27;95773.19;;;-2.58;100.00
60433;BME280;46286;48.098;11.590;2023-01-26T02:23:00;95762.16;;;-2.52;100.00
60433;BME280;46286;48.098;11.590;2023-01-26T02:25:39;95755.41;;;-2.53;100.00
60433;BME280;46286;48.098;11.590;2023-01-26T02:28:07;95762.88;;;-2.58;100.00
60433;BME280;46286;48.098;11.590;2023-01-26T02:30:32;95750.97;;;-2.59;100.00
60433;BME280;46286;48.098;11.590;2023-01-26T02:32:58;95750.97;;;-2.59;100.00
60433;BME280;46286;48.098;11.590;2023-01-26T02:35:23;95744.59;;;-2.64;100.00
60433;BME280;46286;48.098;11.590;2023-01-26T02:37:49;95743.84;;;-2.57;100.00
60433;BME280;46286;48.098;11.590;2023-01-26T02:42:43;95728.34;;;-2.64;100.00
60433;BME280;46286;48.098;11.590;2023-01-26T02:45:14;95730.00;;;-2.56;100.00
60433;BME280;46286;48.098;11.590;2023-01-26T02:47:39;95735.16;;;-2.56;100.00
60433;BME280;46286;48.098;11.590;2023-01-26T02:50:09;95735.53;;;-2.59;100.00
60433;BME280;46286;48.098;11.590;2023-01-26T02:52:34;95722.91;;;-2.69;100.00
60433;BME280;46286;48.098;11.590;2023-01-26T02:55:00;95718.81;;;-2.64;100.00
60433;BME280;46286;48.098;11.590;2023-01-26T02:57:45;95719.19;;;-2.67;100.00
60433;BME280;46286;48.098;11.590;2023-01-26T03:02:40;95712.06;;;-2.65;100.00
60433;BME280;46286;48.098;11.590;2023-01-26T03:05:07;95706.91;;;-2.65;100.00
60433;BME280;46286;48.098;11.590;2023-01-26T03:07:33;95705.34;;;-2.66;100.00
60433;BME280;46286;48.098;11.590;2023-01-26T03:09:58;95701.38;;;-2.62;100.00
60433;BME280;46286;48.098;11.590;2023-01-26T03:12:24;95703.59;;;-2.80;100.00
60433;BME280;46286;48.098;11.590;2023-01-26T03:14:50;95701.88;;;-2.73;100.00
60433;BME280;46286;48.098;11.590;2023-01-26T03:17:38;95704.09;;;-2.70;100.00
60433;BME280;46286;48.098;11.590;2023-01-26T03:20:05;95701.34;;;-2.68;100.00
60433;BME280;46286;48.098;11.590;2023-01-26T03:22:49;95703.72;;;-2.67;100.00
60433;BME280;46286;48.098;11.590;2023-01-26T03:25:33;95701.25;;;-2.75;100.00
60433;BME280;46286;48.098;11.590;2023-01-26T03:28:17;95690.16;;;-2.75;100.00
60433;BME280;46286;48.098;11.590;2023-01-26T03:30:48;95689.97;;;-2.74;100.00
60433;BME280;46286;48.098;11.590;2023-01-26T03:33:15;95694.75;;;-2.71;100.00
60433;BME280;46286;48.098;11.590;2023-01-26T03:35:41;95687.31;;;-2.81;100.00
60433;BME280;46286;48.098;11.590;2023-01-26T03:38:06;95688.38;;;-2.75;100.00
60433;BME280;46286;48.098;11.590;2023-01-26T03:40:32;95694.06;;;-2.80;100.00
60433;BME280;46286;48.098;11.590;2023-01-26T03:43:16;95689.00;;;-2.73;100.00
60433;BME280;46286;48.098;11.590;2023-01-26T03:46:05;95700.88;;;-2.72;100.00
60433;BME280;46286;48.098;11.590;2023-01-26T03:48:49;95695.72;;;-2.72;100.00
60433;BME280;46286;48.098;11.590;2023-01-26T03:51:33;95695.72;;;-2.72;100.00
60433;BME280;46286;48.098;11.590;2023-01-26T03:54:17;95694.16;;;-2.73;100.00
60433;BME280;46286;48.098;11.590;2023-01-26T03:57:01;95692.97;;;-2.70;100.00
60433;BME280;46286;48.098;11.590;2023-01-26T03:59:27;95691.81;;;-2.68;100.00
60433;BME280;46286;48.098;11.590;2023-01-26T04:02:09;95685.38;;;-2.79;100.00
60433;BME280;46286;48.098;11.590;2023-01-26T04:04:54;95685.56;;;-2.80;100.00
60433;BME280;46286;48.098;11.590;2023-01-26T04:07:39;95695.13;;;-2.74;100.00
60433;BME280;46286;48.098;11.590;2023-01-26T04:10:24;95691.31;;;-2.78;100.00
60433;BME280;46286;48.098;11.590;2023-01-26T04:12:50;95697.63;;;-2.81;100.00
60433;BME280;46286;48.098;11.590;2023-01-26T04:15:35;95692.09;;;-2.78;100.00
60433;BME280;46286;48.098;11.590;2023-01-26T04:18:19;95693.88;;;-2.78;100.00
60433;BME280;46286;48.098;11.590;2023-01-26T04:21:04;95675.50;;;-2.75;100.00
60433;BME280;46286;48.098;11.590;2023-01-26T04:23:49;95688.56;;;-2.76;100.00
60433;BME280;46286;48.098;11.590;2023-01-26T04:26:15;95683.22;;;-2.75;100.00
60433;BME280;46286;48.098;11.590;2023-01-26T04:28:41;95681.38;;;-2.81;100.00
60433;BME280;46286;48.098;11.590;2023-01-26T04:31:07;95675.38;;;-2.67;100.00
60433;BME280;46286;48.098;11.590;2023-01-26T04:33:32;95673.53;;;-2.73;100.00
60433;BME280;46286;48.098;11.590;2023-01-26T04:36:05;95676.59;;;-2.84;100.00
60433;BME280;46286;48.098;11.590;2023-01-26T04:38:31;95673.53;;;-2.73;100.00
60433;BME280;46286;48.098;11.590;2023-01-26T04:40:57;95673.38;;;-2.86;100.00
60433;BME280;46286;48.098;11.590;2023-01-26T04:43:23;95678.91;;;-2.89;100.00
60433;BME280;46286;48.098;11.590;2023-01-26T04:46:03;95670.56;;;-2.91;100.00
60433;BME280;46286;48.098;11.590;2023-01-26T04:48:29;95674.72;;;-2.90;100.00
60433;BME280;46286;48.098;11.590;2023-01-26T04:50:57;95673.75;;;-2.89;100.00
60433;BME280;46286;48.098;11.590;2023-01-26T04:53:24;95664.31;;;-2.82;100.00
60433;BME280;46286;48.098;11.590;2023-01-26T04:55:49;95671.53;;;-2.92;100.00
60433;BME280;46286;48.098;11.590;2023-01-26T04:58:15;95674.47;;;-2.96;100.00
60433;BME280;46286;48.098;11.590;2023-01-26T05:00:40;95670.91;;;-2.94;100.00
60433;BME280;46286;48.098;11.590;2023-01-26T05:03:06;95676.03;;;-2.94;100.00
60433;BME280;46286;48.098;11.590;2023-01-26T05:05:35;95676.94;;;-2.87;100.00
60433;BME280;46286;48.098;11.590;2023-01-26T05:08:02;95670.91;;;-2.94;100.00
60433;BME280;46286;48.098;11.590;2023-01-26T05:10:28;95681.94;;;-3.01;100.00
60433;BME280;46286;48.098;11.590;2023-01-26T05:12:54;95681.94;;;-3.01;100.00
60433;BME280;46286;48.098;11.590;2023-01-26T05:15:19;95673.59;;;-3.03;100.00
60433;BME280;46286;48.098;11.590;2023-01-26T05:17:45;95683.53;;;-3.00;100.00
60433;BME280;46286;48.098;11.590;2023-01-26T05:20:11;95681.94;;;-3.01;100.00
60433;BME280;46286;48.098;11.590;2023-01-26T05:22:36;95684.78;;;-2.96;100.00
60433;BME280;46286;48.098;11.590;2023-01-26T05:25:02;95683.94;;;-2.96;100.00
60433;BME280;46286;48.098;11.590;2023-01-26T05:27:28;95678.38;;;-3.00;100.00
60433;BME280;46286;48.098;11.590;2023-01-26T05:29:53;95676.41;;;-2.98;100.00
60433;BME280;46286;48.098;11.590;2023-01-26T05:32:28;95673.22;;;-3.00;100.00
60433;BME280;46286;48.098;11.590;2023-01-26T05:34:54;95675.63;;;-2.98;100.00
60433;BME280;46286;48.098;11.590;2023-01-26T05:37:20;95664.41;;;-2.90;100.00
60433;BME280;46286;48.098;11.590;2023-01-26T05:39:45;95672.09;;;-2.97;100.00
60433;BME280;46286;48.098;11.590;2023-01-26T05:42:12;95672.13;;;-2.90;100.00
60433;BME280;46286;48.098;11.590;2023-01-26T05:44:38;95669.03;;;-2.86;100.00
60433;BME280;46286;48.098;11.590;2023-01-26T05:47:04;95670.38;;;-2.90;100.00
60433;BME280;46286;48.098;11.590;2023-01-26T05:49:30;95670.56;;;-2.91;100.00
60433;BME280;46286;48.098;11.590;2023-01-26T05:51:56;95676.69;;;-2.92;100.00
60433;BME280;46286;48.098;11.590;2023-01-26T05:54:21;95676.59;;;-2.84;100.00
60433;BME280;46286;48.098;11.590;2023-01-26T05:56:47;95681.38;;;-2.81;100.00
60433;BME280;46286;48.098;11.590;2023-01-26T05:59:13;95680.50;;;-2.88;100.00
60433;BME280;46286;48.098;11.590;2023-01-26T06:01:39;95677.75;;;-2.87;100.00
60433;BME280;46286;48.098;11.590;2023-01-26T06:04:05;95681.47;;;-2.89;100.00
60433;BME280;46286;48.098;11.590;2023-01-26T06:06:30;95683.50;;;-2.85;100.00
60433;BME280;46286;48.098;11.590;2023-01-26T06:08:56;95687.56;;;-2.75;100.00
60433;BME280;46286;48.098;11.590;2023-01-26T06:11:22;95685.19;;;-2.77;100.00
60433;BME280;46286;48.098;11.590;2023-01-26T06:13:48;95683.84;;;-2.73;100.00
60433;BME280;46286;48.098;11.590;2023-01-26T06:16:14;95685.06;;;-2.69;100.00
60433;BME280;46286;48.098;11.590;2023-01-26T06:18:39;95681.63;;;-2.76;100.00
60433;BME280;46286;48.098;11.590;2023-01-26T06:21:05;95675.13;;;-2.72;100.00
60433;BME280;46286;48.098;11.590;2023-01-26T06:23:31;95675.84;;;-2.78;100.00
60433;BME280;46286;48.098;11.590;2023-01-26T06:26:00;95674.25;;;-2.79;100.00
60433;BME280;46286;48.098;11.590;2023-01-26T06:28:27;95678.16;;;-2.83;100.00
60433;BME280;46286;48.098;11.590;2023-01-26T06:31:01;95688.13;;;-2.80;100.00
60433;BME280;46286;48.098;11.590;2023-01-26T06:33:27;95683.31;;;-2.83;100.00
60433;BME280;46286;48.098;11.590;2023-01-26T06:35:53;95679.78;;;-2.82;100.00
60433;BME280;46286;48.098;11.590;2023-01-26T06:38:19;95681.38;;;-2.81;100.00
60433;BME280;46286;48.098;11.590;2023-01-26T06:40:45;95679.69;;;-2.89;100.00
60433;BME280;46286;48.098;11.590;2023-01-26T06:43:10;95681.56;;;-2.98;100.00
60433;BME280;46286;48.098;11.590;2023-01-26T06:45:36;95683.53;;;-3.00;100.00
60433;BME280;46286;48.098;11.590;2023-01-26T06:48:01;95676.03;;;-2.94;100.00
60433;BME280;46286;48.098;11.590;2023-01-26T06:50:31;95684.78;;;-2.96;100.00
60433;BME280;46286;48.098;11.590;2023-01-26T06:53:03;95686.00;;;-2.91;100.00
60433;BME280;46286;48.098;11.590;2023-01-26T06:55:48;95677.59;;;-3.00;100.00
60433;BME280;46286;48.098;11.590;2023-01-26T06:58:15;95671.63;;;-3.01;100.00
60433;BME280;46286;48.098;11.590;2023-01-26T07:00:42;95673.09;;;-3.13;100.00
60433;BME280;46286;48.098;11.590;2023-01-26T07:03:09;95675.38;;;-3.18;100.00
60433;BME280;46286;48.098;11.590;2023-01-26T07:05:35;95668.81;;;-3.06;100.00
60433;BME280;46286;48.098;11.590;2023-01-26T07:08:00;95667.72;;;-2.97;100.00
60433;BME280;46286;48.098;11.590;2023-01-26T07:10:29;95667.94;;;-3.13;100.00
60433;BME280;46286;48.098;11.590;2023-01-26T07:12:54;95674.28;;;-3.09;100.00
60433;BME280;46286;48.098;11.590;2023-01-26T07:15:20;95671.47;;;-3.14;100.00
60433;BME280;46286;48.098;11.590;2023-01-26T07:17:46;95670.38;;;-3.05;100.00
60433;BME280;46286;48.098;11.590;2023-01-26T07:20:12;95670.38;;;-3.05;100.00
60433;BME280;46286;48.098;11.590;2023-01-26T07:22:37;95672.72;;;-3.10;100.00
60433;BME280;46286;48.098;11.590;2023-01-26T07:25:03;95679.44;;;-3.09;100.00
60433;BME280;46286;48.098;11.590;2023-01-26T07:27:28;95675.91;;;-3.08;100.00
60433;BME280;46286;48.098;11.590;2023-01-26T07:29:54;95675.28;;;-3.10;100.00
60433;BME280;46286;48.098;11.590;2023-01-26T07:32:19;95671.63;;;-3.01;100.00
60433;BME280;46286;48.098;11.590;2023-01-26T07:34:45;95664.88;;;-3.02;100.00
60433;BME280;46286;48.098;11.590;2023-01-26T07:37:11;95669.00;;;-3.07;100.00
60433;BME280;46286;48.098;11.590;2023-01-26T07:39:36;95672.50;;;-2.93;100.00
60433;BME280;46286;48.098;11.590;2023-01-26T07:42:02;95675.16;;;-3.02;100.00
60433;BME280;46286;48.098;11.590;2023-01-26T07:44:27;95667.81;;;-2.90;100.00
60433;BME280;46286;48.098;11.590;2023-01-26T07:46:53;95666.13;;;-2.98;100.00
60433;BME280;46286;48.098;11.590;2023-01-26T07:49:19;95658.44;;;-2.76;100.00
60433;BME280;46286;48.098;11.590;2023-01-26T07:51:44;95657.41;;;-2.97;100.00
60433;BME280;46286;48.098;11.590;2023-01-26T07:54:10;95660.50;;;-2.86;100.00
60433;BME280;46286;48.098;11.590;2023-01-26T07:56:37;95661.50;;;-2.87;100.00
60433;BME280;46286;48.098;11.590;2023-01-26T07:59:03;95655.13;;;-2.91;100.00
60433;BME280;46286;48.098;11.590;2023-01-26T08:01:29;95661.31;;;-2.86;100.00
60433;BME280;46286;48.098;11.590;2023-01-26T08:03:55;95653.88;;;-2.96;100.00
60433;BME280;46286;48.098;11.590;2023-01-26T08:06:21;95662.19;;;-2.93;100.00
60433;BME280;46286;48.098;11.590;2023-01-26T08:08:47;95659.03;;;-2.96;100.00
60433;BME280;46286;48.098;11.590;2023-01-26T08:11:18;95646.38;;;-2.90;100.00
60433;BME280;46286;48.098;11.590;2023-01-26T08:13:44;95649.41;;;-3.02;100.00
60433;BME280;46286;48.098;11.590;2023-01-26T08:16:10;95649.97;;;-2.91;100.00
60433;BME280;46286;48.098;11.590;2023-01-26T08:18:40;95648.34;;;-2.92;100.00
60433;BME280;46286;48.098;11.590;2023-01-26T08:21:06;95643.72;;;-2.82;100.00
60433;BME280;46286;48.098;11.590;2023-01-26T08:23:32;95646.75;;;-2.93;100.00
60433;BME280;46286;48.098;11.590;2023-01-26T08:26:02;95649.22;;;-2.85;100.00
60433;BME280;46286;48.098;11.590;2023-01-26T08:28:28;95638.56;;;-2.82;100.00
60433;BME280;46286;48.098;11.590;2023-01-26T08:30:54;95642.38;;;-2.78;100.00
60433;BME280;46286;48.098;11.590;2023-01-26T08:33:21;95632.91;;;-2.92;100.00
60433;BME280;46286;48.098;11.590;2023-01-26T08:35:46;95642.09;;;-2.83;100.00
60433;BME280;46286;48.098;11.590;2023-01-26T08:38:12;95636.94;;;-2.83;100.00
60433;BME280;46286;48.098;11.590;2023-01-26T08:40:37;95642.47;;;-2.86;100.00
60433;BME280;46286;48.098;11.590;2023-01-26T08:43:03;95639.66;;;-2.91;100.00
60433;BME280;46286;48.098;11.590;2023-01-26T08:45:29;95628.13;;;-2.96;100.00
60433;BME280;46286;48.098;11.590;2023-01-26T08:47:55;95636.91;;;-2.90;100.00
60433;BME280;46286;48.098;11.590;2023-01-26T08:50:20;95638.94;;;-2.85;100.00
60433;BME280;46286;48.098;11.590;2023-01-26T08:52:46;95635.38;;;-2.84;100.00
60433;BME280;46286;48.098;11.590;2023-01-26T08:55:11;95640.53;;;-2.84;100.00
60433;BME280;46286;48.098;11.590;2023-01-26T08:57:38;95643.72;;;-2.82;100.00
60433;BME280;46286;48.098;11.590;2023-01-26T09:00:04;95642.38;;;-2.78;100.00
60433;BME280;46286;48.098;11.590;2023-01-26T09:02:29;95645.63;;;-2.69;100.00
60433;BME280;46286;48.098;11.590;2023-01-26T09:04:55;95643.72;;;-2.82;100.00
60433;BME280;46286;48.098;11.590;2023-01-26T09:07:20;95637.78;;;-2.83;100.00
60433;BME280;46286;48.098;11.590;2023-01-26T09:09:46;95633.41;;;-2.82;100.00
60433;BME280;46286;48.098;11.590;2023-01-26T09:12:11;95639.06;;;-2.72;100.00
60433;BME280;46286;48.098;11.590;2023-01-26T09:14:37;95643.84;;;-2.69;100.00
60433;BME280;46286;48.098;11.590;2023-01-26T09:17:03;95637.91;;;-2.69;100.00
60433;BME280;46286;48.098;11.590;2023-01-26T09:19:28;95636.25;;;-2.77;100.00
60433;BME280;46286;48.098;11.590;2023-01-26T09:21:54;95634.28;;;-2.75;100.00
60433;BME280;46286;48.098;11.590;2023-01-26T09:24:20;95637.41;;;-2.80;100.00
60433;BME280;46286;48.098;11.590;2023-01-26T09:26:46;95640.41;;;-2.76;100.00
60433;BME280;46286;48.098;11.590;2023-01-26T09:29:12;95642.63;;;-2.73;100.00
60433;BME280;46286;48.098;11.590;2023-01-26T09:31:37;95641.91;;;-2.67;100.00
60433;BME280;46286;48.098;11.590;2023-01-26T09:34:04;95646.97;;;-2.73;100.00
60433;BME280;46286;48.098;11.590;2023-01-26T09:36:30;95648.13;;;-2.76;100.00
60433;BME280;46286;48.098;11.590;2023-01-26T09:38:55;95646.59;;;-2.70;100.00
60433;BME280;46286;48.098;11.590;2023-01-26T09:44:04;95653.06;;;-2.59;100.00
60433;BME280;46286;48.098;11.590;2023-01-26T09:49:47;95655.28;;;-2.56;100.00
60433;BME280;46286;48.098;11.590;2023-01-26T09:54:50;95656.97;;;-2.64;100.00
60433;BME280;46286;48.098;11.590;2023-01-26T09:57:26;95648.13;;;-2.54;100.00
60433;BME280;46286;48.098;11.590;2023-01-26T10:05:48;95637.34;;;-2.43;100.00
60433;BME280;46286;48.098;11.590;2023-01-26T10:08:17;95638.09;;;-2.49;100.00
60433;BME280;46286;48.098;11.590;2023-01-26T10:10:52;95643.25;;;-2.49;100.00
60433;BME280;46286;48.098;11.590;2023-01-26T10:13:19;95633.91;;;-2.50;100.00
60433;BME280;46286;48.098;11.590;2023-01-26T10:15:50;95643.63;;;-2.52;100.00
60433;BME280;46286;48.098;11.590;2023-01-26T10:18:23;95640.13;;;-2.45;100.00
60433;BME280;46286;48.098;11.590;2023-01-26T10:20:53;95628.22;;;-2.46;100.00
60433;BME280;46286;48.098;11.590;2023-01-26T10:23:23;95637.34;;;-2.43;100.00
60433;BME280;46286;48.098;11.590;2023-01-26T10:25:50;95637.72;;;-2.46;100.00
60433;BME280;46286;48.098;11.590;2023-01-26T10:28:30;95627.03;;;-2.43;100.00
60433;BME280;46286;48.098;11.590;2023-01-26T10:31:01;95626.31;;;-2.37;100.00
60433;BME280;46286;48.098;11.590;2023-01-26T10:33:35;95619.50;;;-2.45;100.00
60433;BME280;46286;48.098;11.590;2023-01-26T10:36:04;95619.94;;;-2.41;100.00
60433;BME280;46286;48.098;11.590;2023-01-26T10:41:05;95614.41;;;-2.38;100.00
60433;BME280;46286;48.098;11.590;2023-01-26T10:43:34;95621.16;;;-2.37;100.00
60433;BME280;46286;48.098;11.590;2023-01-26T10:46:02;95610.09;;;-2.31;100.00
60433;BME280;46286;48.098;11.590;2023-01-26T10:48:28;95608.41;;;-2.45;100.00
60433;BME280;46286;48.098;11.590;2023-01-26T10:50:54;95616.00;;;-2.37;100.00
60433;BME280;46286;48.098;11.590;2023-01-26T10:53:23;95619.09;;;-2.48;100.00
60433;BME280;46286;48.098;11.590;2023-01-26T10:56:13;95613.94;;;-2.48;100.00
60433;BME280;46286;48.098;11.590;2023-01-26T10:58:54;95611.16;;;-2.47;100.00
60433;BME280;46286;48.098;11.590;2023-01-26T11:01:21;95613.84;;;-2.55;100.00
60433;BME280;46286;48.098;11.590;2023-01-26T11:06:28;95609.94;;;-2.51;100.00
60433;BME280;46286;48.098;11.590;2023-01-26T11:09:07;95599.19;;;-2.54;100.00
60433;BME280;46286;48.098;11.590;2023-01-26T11:11:33;95596.88;;;-2.49;100.00
60433;BME280;46286;48.098;11.590;2023-01-26T11:14:16;95597.25;;;-2.52;100.00
60433;BME280;46286;48.098;11.590;2023-01-26T11:16:49;95602.00;;;-2.49;100.00
60433;BME280;46286;48.098;11.590;2023-01-26T11:19:22;95603.63;;;-2.48;100.00
60433;BME280;46286;48.098;11.590;2023-01-26T11:21:54;95603.25;;;-2.45;100.00
60433;BME280;46286;48.098;11.590;2023-01-26T11:24:32;95606.41;;;-2.43;100.00
60433;BME280;46286;48.098;11.590;2023-01-26T11:27:17;95599.63;;;-2.51;100.00
60433;BME280;46286;48.098;11.590;2023-01-26T11:30:14;95607.16;;;-2.49;100.00
60433;BME280;46286;48.098;11.590;2023-01-26T11:35:56;95603.66;;;-2.41;100.00
60433;BME280;46286;48.098;11.590;2023-01-26T11:38:34;95602.09;;;-2.42;100.00
60433;BME280;46286;48.098;11.590;2023-01-26T11:44:20;95596.25;;;-2.30;100.00
60433;BME280;46286;48.098;11.590;2023-01-26T11:47:16;95595.00;;;-2.34;100.00
60433;BME280;46286;48.098;11.590;2023-01-26T11:50:17;95587.28;;;-2.34;100.00
60433;BME280;46286;48.098;11.590;2023-01-26T11:55:55;95589.09;;;-2.28;100.00
60433;BME280;46286;48.098;11.590;2023-01-26T11:58:34;95586.91;;;-2.31;100.00
60433;BME280;46286;48.098;11.590;2023-01-26T12:01:08;95587.66;;;-2.37;100.00
60433;BME280;46286;48.098;11.590;2023-01-26T12:03:50;95576.00;;;-2.33;100.00
60433;BME280;46286;48.098;11.590;2023-01-26T12:06:30;95577.69;;;-2.18;100.00
60433;BME280;46286;48.098;11.590;2023-01-26T12:09:16;95577.25;;;-2.22;100.00
60433;BME280;46286;48.098;11.590;2023-01-26T12:15:12;95569.56;;;-2.15;100.00
60433;BME280;46286;48.098;11.590;2023-01-26T12:21:10;95564.94;;;-2.27;100.00
60433;BME280;46286;48.098;11.590;2023-01-26T12:23:47;95563.34;;;-2.28;100.00
60433;BME280;46286;48.098;11.590;2023-01-26T12:26:17;95573.78;;;-2.36;100.00
60433;BME280;46286;48.098;11.590;2023-01-26T12:29:02;95566.66;;;-2.34;100.00
60433;BME280;46286;48.098;11.590;2023-01-26T12:31:39;95560.00;;;-2.21;100.00
60433;BME280;46286;48.098;11.590;2023-01-26T12:34:13;95559.66;;;-2.40;100.00
60433;BME280;46286;48.098;11.590;2023-01-26T12:42:40;95566.03;;;-2.36;100.00
60433;BME280;46286;48.098;11.590;2023-01-26T12:45:14;95564.31;;;-2.29;100.00
60433;BME280;46286;48.098;11.590;2023-01-26T12:47:47;95559.66;;;-2.18;100.00
60433;BME280;46286;48.098;11.590;2023-01-26T12:50:38;95561.19;;;-2.24;100.00
60433;BME280;46286;48.098;11.590;2023-01-26T12:53:13;95559.78;;;-2.27;100.00
60433;BME280;46286;48.098;11.590;2023-01-26T12:58:33;95559.66;;;-2.40;100.00
60433;BME280;46286;48.098;11.590;2023-01-26T13:01:01;95557.25;;;-2.41;100.00
60433;BME280;46286;48.098;11.590;2023-01-26T13:03:54;95558.56;;;-2.31;100.00
60433;BME280;46286;48.098;11.590;2023-01-26T13:06:23;95561.91;;;-2.30;100.00
60433;BME280;46286;48.098;11.590;2023-01-26T13:11:53;95551.84;;;-2.25;100.00
60433;BME280;46286;48.098;11.590;2023-01-26T13:22:36;95551.91;;;-2.18;100.00
60433;BME280;46286;48.098;11.590;2023-01-26T13:25:17;95551.13;;;-2.40;100.00
60433;BME280;46286;48.098;11.590;2023-01-26T13:27:48;95549.78;;;-2.36;100.00
60433;BME280;46286;48.098;11.590;2023-01-26T13:32:54;95544.19;;;-2.40;100.00
60433;BME280;46286;48.098;11.590;2023-01-26T13:35:26;95550.47;;;-2.49;100.00
60433;BME280;46286;48.098;11.590;2023-01-26T13:40:25;95545.78;;;-2.39;100.00
60433;BME280;46286;48.098;11.590;2023-01-26T13:43:00;95547.78;;;-2.41;100.00
60433;BME280;46286;48.098;11.590;2023-01-26T13:45:34;95533.88;;;-2.40;100.00
60433;BME280;46286;48.098;11.590;2023-01-26T13:48:04;95543.84;;;-2.37;100.00
60433;BME280;46286;48.098;11.590;2023-01-26T13:50:35;95546.16;;;-2.42;100.00
60433;BME280;46286;48.098;11.590;2023-01-26T13:55:55;95543.00;;;-2.44;100.00
60433;BME280;46286;48.098;11.590;2023-01-26T13:58:22;95547.78;;;-2.41;100.00
60433;BME280;46286;48.098;11.590;2023-01-26T14:01:03;95550.38;;;-2.34;100.00
60433;BME280;46286;48.098;11.590;2023-01-26T14:03:29;95545.78;;;-2.39;100.00
60433;BME280;46286;48.098;11.590;2023-01-26T14:06:00;95547.78;;;-2.41;100.00
60433;BME280;46286;48.098;11.590;2023-01-26T14:08:28;95544.81;;;-2.38;100.00